sensor_id;sensor_type;location;lat;lon;timestamp;P1;durP1;ratioP1;P2;durP2;ratioP2
64791;SDS011;51226;47.504;19.074;2022-12-29T00:01:02;19.42;;;13.85;;
64791;SDS011;51226;47.504;19.074;2022-12-29T00:07:15;19.30;;;13.70;;
64791;SDS011;51226;47.504;19.074;2022-12-29T00:10:19;22.92;;;14.82;;
64791;SDS011;51226;47.504;19.074;2022-12-29T00:13:22;20.23;;;13.80;;
64791;SDS011;51226;47.504;19.074;2022-12-29T00:16:45;16.55;;;12.68;;
64791;SDS011;51226;47.504;19.074;2022-12-29T00:19:49;22.37;;;13.90;;
64791;SDS011;51226;47.504;19.074;2022-12-29T00:23:11;20.23;;;12.87;;
64791;SDS011;51226;47.504;19.074;2022-12-29T00:26:33;19.25;;;13.20;;
64791;SDS011;51226;47.504;19.074;2022-12-29T00:29:55;18.80;;;13.15;;
64791;SDS011;51226;47.504;19.074;2022-12-29T00:33:20;22.15;;;14.50;;
64791;SDS011;51226;47.504;19.074;2022-12-29T00:36:43;22.23;;;14.13;;
64791;SDS011;51226;47.504;19.074;2022-12-29T00:39:46;21.00;;;14.40;;
64791;SDS011;51226;47.504;19.074;2022-12-29T00:43:08;20.60;;;13.82;;
64791;SDS011;51226;47.504;19.074;2022-12-29T00:46:29;17.60;;;12.65;;
64791;SDS011;51226;47.504;19.074;2022-12-29T00:49:33;22.20;;;13.02;;
64791;SDS011;51226;47.504;19.074;2022-12-29T00:52:36;20.83;;;14.13;;
64791;SDS011;51226;47.504;19.074;2022-12-29T00:55:39;18.65;;;12.73;;
64791;SDS011;51226;47.504;19.074;2022-12-29T00:58:41;21.35;;;13.30;;
64791;SDS011;51226;47.504;19.074;2022-12-29T01:01:45;20.15;;;13.85;;
64791;SDS011;51226;47.504;19.074;2022-12-29T01:04:49;19.90;;;13.70;;
64791;SDS011;51226;47.504;19.074;2022-12-29T01:07:52;19.08;;;13.18;;
64791;SDS011;51226;47.504;19.074;2022-12-29T01:11:02;22.15;;;13.90;;
64791;SDS011;51226;47.504;19.074;2022-12-29T01:14:10;21.67;;;15.70;;
64791;SDS011;51226;47.504;19.074;2022-12-29T01:17:13;22.53;;;14.10;;
64791;SDS011;51226;47.504;19.074;2022-12-29T01:20:16;20.52;;;13.85;;
64791;SDS011;51226;47.504;19.074;2022-12-29T01:23:19;18.60;;;12.70;;
64791;SDS011;51226;47.504;19.074;2022-12-29T01:26:22;20.42;;;13.00;;
64791;SDS011;51226;47.504;19.074;2022-12-29T01:29:26;18.37;;;12.77;;
64791;SDS011;51226;47.504;19.074;2022-12-29T01:32:29;19.02;;;12.88;;
64791;SDS011;51226;47.504;19.074;2022-12-29T01:35:33;23.85;;;14.63;;
64791;SDS011;51226;47.504;19.074;2022-12-29T01:38:37;20.42;;;14.02;;
64791;SDS011;51226;47.504;19.074;2022-12-29T01:44:47;17.55;;;12.52;;
64791;SDS011;51226;47.504;19.074;2022-12-29T01:48:02;20.25;;;13.23;;
64791;SDS011;51226;47.504;19.074;2022-12-29T01:51:08;20.88;;;13.90;;
64791;SDS011;51226;47.504;19.074;2022-12-29T01:54:12;18.85;;;13.23;;
64791;SDS011;51226;47.504;19.074;2022-12-29T01:57:38;21.00;;;14.07;;
64791;SDS011;51226;47.504;19.074;2022-12-29T02:00:46;20.33;;;13.98;;
64791;SDS011;51226;47.504;19.074;2022-12-29T02:03:49;21.55;;;12.82;;
64791;SDS011;51226;47.504;19.074;2022-12-29T02:06:54;20.02;;;14.40;;
64791;SDS011;51226;47.504;19.074;2022-12-29T02:10:02;21.45;;;14.90;;
64791;SDS011;51226;47.504;19.074;2022-12-29T02:13:05;20.45;;;13.32;;
64791;SDS011;51226;47.504;19.074;2022-12-29T02:22:34;21.70;;;14.05;;
64791;SDS011;51226;47.504;19.074;2022-12-29T02:26:14;20.67;;;15.02;;
64791;SDS011;51226;47.504;19.074;2022-12-29T02:36:31;18.95;;;14.05;;
64791;SDS011;51226;47.504;19.074;2022-12-29T02:43:45;19.92;;;13.30;;
64791;SDS011;51226;47.504;19.074;2022-12-29T02:46:53;18.58;;;13.80;;
64791;SDS011;51226;47.504;19.074;2022-12-29T02:53:31;22.17;;;14.52;;
64791;SDS011;51226;47.504;19.074;2022-12-29T02:56:55;20.25;;;13.57;;
64791;SDS011;51226;47.504;19.074;2022-12-29T03:00:01;21.98;;;14.23;;
64791;SDS011;51226;47.504;19.074;2022-12-29T03:17:11;20.50;;;14.87;;
64791;SDS011;51226;47.504;19.074;2022-12-29T03:20:26;22.48;;;14.48;;
64791;SDS011;51226;47.504;19.074;2022-12-29T03:23:39;20.37;;;12.95;;
64791;SDS011;51226;47.504;19.074;2022-12-29T03:26:46;20.92;;;14.70;;
64791;SDS011;51226;47.504;19.074;2022-12-29T03:29:52;19.80;;;14.30;;
64791;SDS011;51226;47.504;19.074;2022-12-29T03:32:59;17.30;;;13.82;;
64791;SDS011;51226;47.504;19.074;2022-12-29T03:36:07;23.08;;;15.05;;
64791;SDS011;51226;47.504;19.074;2022-12-29T03:39:14;21.75;;;15.10;;
64791;SDS011;51226;47.504;19.074;2022-12-29T03:42:19;20.10;;;14.60;;
64791;SDS011;51226;47.504;19.074;2022-12-29T03:45:23;25.17;;;14.68;;
64791;SDS011;51226;47.504;19.074;2022-12-29T03:48:27;23.05;;;15.18;;
64791;SDS011;51226;47.504;19.074;2022-12-29T03:51:30;21.63;;;15.20;;
64791;SDS011;51226;47.504;19.074;2022-12-29T03:54:33;24.27;;;15.57;;
64791;SDS011;51226;47.504;19.074;2022-12-29T03:57:36;18.60;;;13.93;;
64791;SDS011;51226;47.504;19.074;2022-12-29T04:03:42;21.20;;;14.45;;
64791;SDS011;51226;47.504;19.074;2022-12-29T04:06:46;21.30;;;14.15;;
64791;SDS011;51226;47.504;19.074;2022-12-29T04:09:49;23.25;;;15.40;;
64791;SDS011;51226;47.504;19.074;2022-12-29T04:12:53;20.02;;;15.57;;
64791;SDS011;51226;47.504;19.074;2022-12-29T04:15:56;21.55;;;14.63;;
64791;SDS011;51226;47.504;19.074;2022-12-29T04:18:59;25.20;;;15.88;;
64791;SDS011;51226;47.504;19.074;2022-12-29T04:22:02;21.90;;;16.42;;
64791;SDS011;51226;47.504;19.074;2022-12-29T04:25:05;20.90;;;15.68;;
64791;SDS011;51226;47.504;19.074;2022-12-29T04:31:12;25.80;;;16.85;;
64791;SDS011;51226;47.504;19.074;2022-12-29T04:34:16;28.58;;;18.25;;
64791;SDS011;51226;47.504;19.074;2022-12-29T04:37:20;26.00;;;18.10;;
64791;SDS011;51226;47.504;19.074;2022-12-29T04:40:23;21.75;;;16.90;;
64791;SDS011;51226;47.504;19.074;2022-12-29T04:43:27;25.33;;;18.17;;
64791;SDS011;51226;47.504;19.074;2022-12-29T04:46:30;27.08;;;19.05;;
64791;SDS011;51226;47.504;19.074;2022-12-29T04:49:34;25.88;;;18.48;;
64791;SDS011;51226;47.504;19.074;2022-12-29T04:52:36;24.35;;;17.48;;
64791;SDS011;51226;47.504;19.074;2022-12-29T04:55:40;27.30;;;18.12;;
64791;SDS011;51226;47.504;19.074;2022-12-29T04:58:43;29.67;;;19.45;;
64791;SDS011;51226;47.504;19.074;2022-12-29T05:01:46;28.95;;;18.30;;
64791;SDS011;51226;47.504;19.074;2022-12-29T05:04:49;29.50;;;19.25;;
64791;SDS011;51226;47.504;19.074;2022-12-29T05:07:52;25.40;;;17.87;;
64791;SDS011;51226;47.504;19.074;2022-12-29T05:10:55;26.80;;;19.05;;
64791;SDS011;51226;47.504;19.074;2022-12-29T05:13:58;25.42;;;16.80;;
64791;SDS011;51226;47.504;19.074;2022-12-29T05:20:05;28.40;;;18.33;;
64791;SDS011;51226;47.504;19.074;2022-12-29T05:23:10;29.30;;;18.35;;
64791;SDS011;51226;47.504;19.074;2022-12-29T05:26:13;31.05;;;18.67;;
64791;SDS011;51226;47.504;19.074;2022-12-29T05:29:16;27.27;;;18.42;;
64791;SDS011;51226;47.504;19.074;2022-12-29T05:32:19;31.48;;;20.88;;
64791;SDS011;51226;47.504;19.074;2022-12-29T05:35:22;26.73;;;19.25;;
64791;SDS011;51226;47.504;19.074;2022-12-29T05:38:26;25.80;;;18.00;;
64791;SDS011;51226;47.504;19.074;2022-12-29T05:41:29;28.98;;;18.48;;
64791;SDS011;51226;47.504;19.074;2022-12-29T05:44:34;26.80;;;19.15;;
64791;SDS011;51226;47.504;19.074;2022-12-29T05:47:38;25.83;;;18.62;;
64791;SDS011;51226;47.504;19.074;2022-12-29T05:50:41;28.75;;;20.40;;
64791;SDS011;51226;47.504;19.074;2022-12-29T05:53:46;28.17;;;18.75;;
64791;SDS011;51226;47.504;19.074;2022-12-29T05:56:50;30.70;;;19.95;;
64791;SDS011;51226;47.504;19.074;2022-12-29T05:59:53;29.25;;;19.37;;
64791;SDS011;51226;47.504;19.074;2022-12-29T06:02:56;29.12;;;20.12;;
64791;SDS011;51226;47.504;19.074;2022-12-29T06:05:59;29.73;;;20.10;;
64791;SDS011;51226;47.504;19.074;2022-12-29T06:09:02;26.98;;;19.00;;
64791;SDS011;51226;47.504;19.074;2022-12-29T06:15:09;31.58;;;19.15;;
64791;SDS011;51226;47.504;19.074;2022-12-29T06:18:15;23.80;;;18.55;;
64791;SDS011;51226;47.504;19.074;2022-12-29T06:21:21;34.60;;;20.95;;
64791;SDS011;51226;47.504;19.074;2022-12-29T06:24:25;30.62;;;19.33;;
64791;SDS011;51226;47.504;19.074;2022-12-29T06:27:28;26.55;;;18.15;;
64791;SDS011;51226;47.504;19.074;2022-12-29T06:30:31;31.58;;;19.40;;
64791;SDS011;51226;47.504;19.074;2022-12-29T06:33:35;27.75;;;19.23;;
64791;SDS011;51226;47.504;19.074;2022-12-29T06:36:38;48.92;;;30.80;;
64791;SDS011;51226;47.504;19.074;2022-12-29T06:39:41;35.75;;;21.42;;
64791;SDS011;51226;47.504;19.074;2022-12-29T06:42:46;31.70;;;20.80;;
64791;SDS011;51226;47.504;19.074;2022-12-29T06:48:52;30.50;;;19.30;;
64791;SDS011;51226;47.504;19.074;2022-12-29T06:51:55;54.97;;;35.60;;
64791;SDS011;51226;47.504;19.074;2022-12-29T06:55:00;63.75;;;39.75;;
64791;SDS011;51226;47.504;19.074;2022-12-29T06:58:03;35.88;;;23.25;;
64791;SDS011;51226;47.504;19.074;2022-12-29T07:01:06;30.73;;;20.33;;
64791;SDS011;51226;47.504;19.074;2022-12-29T07:04:09;29.00;;;19.10;;
64791;SDS011;51226;47.504;19.074;2022-12-29T07:07:12;31.12;;;20.90;;
64791;SDS011;51226;47.504;19.074;2022-12-29T07:10:15;35.90;;;20.12;;
64791;SDS011;51226;47.504;19.074;2022-12-29T07:13:18;29.87;;;19.12;;
64791;SDS011;51226;47.504;19.074;2022-12-29T07:16:21;28.15;;;19.80;;
64791;SDS011;51226;47.504;19.074;2022-12-29T07:19:24;33.90;;;20.60;;
64791;SDS011;51226;47.504;19.074;2022-12-29T07:22:27;29.10;;;20.12;;
64791;SDS011;51226;47.504;19.074;2022-12-29T07:25:30;31.95;;;20.95;;
64791;SDS011;51226;47.504;19.074;2022-12-29T07:28:33;28.42;;;20.17;;
64791;SDS011;51226;47.504;19.074;2022-12-29T07:31:37;29.00;;;19.60;;
64791;SDS011;51226;47.504;19.074;2022-12-29T07:34:40;31.55;;;20.92;;
64791;SDS011;51226;47.504;19.074;2022-12-29T07:37:43;31.37;;;21.10;;
64791;SDS011;51226;47.504;19.074;2022-12-29T07:40:46;31.33;;;21.25;;
64791;SDS011;51226;47.504;19.074;2022-12-29T07:43:49;38.88;;;26.85;;
64791;SDS011;51226;47.504;19.074;2022-12-29T07:46:55;43.15;;;27.70;;
64791;SDS011;51226;47.504;19.074;2022-12-29T07:50:00;31.27;;;23.20;;
64791;SDS011;51226;47.504;19.074;2022-12-29T07:53:03;33.30;;;22.62;;
64791;SDS011;51226;47.504;19.074;2022-12-29T07:56:06;34.25;;;21.42;;
64791;SDS011;51226;47.504;19.074;2022-12-29T07:59:09;29.48;;;23.12;;
64791;SDS011;51226;47.504;19.074;2022-12-29T08:02:14;30.88;;;22.87;;
64791;SDS011;51226;47.504;19.074;2022-12-29T08:05:17;29.75;;;21.65;;
64791;SDS011;51226;47.504;19.074;2022-12-29T08:08:20;29.63;;;20.92;;
64791;SDS011;51226;47.504;19.074;2022-12-29T08:11:23;33.50;;;22.13;;
64791;SDS011;51226;47.504;19.074;2022-12-29T08:14:26;35.93;;;23.87;;
64791;SDS011;51226;47.504;19.074;2022-12-29T08:17:29;30.90;;;22.25;;
64791;SDS011;51226;47.504;19.074;2022-12-29T08:20:32;32.00;;;24.30;;
64791;SDS011;51226;47.504;19.074;2022-12-29T08:26:38;31.45;;;23.20;;
64791;SDS011;51226;47.504;19.074;2022-12-29T08:32:43;35.20;;;23.65;;
64791;SDS011;51226;47.504;19.074;2022-12-29T08:35:47;35.95;;;24.85;;
64791;SDS011;51226;47.504;19.074;2022-12-29T08:38:49;34.70;;;24.60;;
64791;SDS011;51226;47.504;19.074;2022-12-29T08:41:55;35.35;;;24.08;;
64791;SDS011;51226;47.504;19.074;2022-12-29T08:44:58;34.80;;;25.73;;
64791;SDS011;51226;47.504;19.074;2022-12-29T08:48:01;35.70;;;24.65;;
64791;SDS011;51226;47.504;19.074;2022-12-29T08:51:04;36.63;;;24.58;;
64791;SDS011;51226;47.504;19.074;2022-12-29T08:54:07;35.33;;;25.33;;
64791;SDS011;51226;47.504;19.074;2022-12-29T08:57:10;35.42;;;24.55;;
64791;SDS011;51226;47.504;19.074;2022-12-29T09:00:14;34.40;;;23.85;;
64791;SDS011;51226;47.504;19.074;2022-12-29T09:03:17;34.63;;;24.63;;
64791;SDS011;51226;47.504;19.074;2022-12-29T09:06:43;33.95;;;25.70;;
64791;SDS011;51226;47.504;19.074;2022-12-29T09:09:46;34.92;;;23.80;;
64791;SDS011;51226;47.504;19.074;2022-12-29T09:12:50;34.15;;;25.25;;
64791;SDS011;51226;47.504;19.074;2022-12-29T09:15:57;35.60;;;25.12;;
64791;SDS011;51226;47.504;19.074;2022-12-29T09:19:02;39.25;;;26.87;;
64791;SDS011;51226;47.504;19.074;2022-12-29T09:22:05;36.03;;;25.48;;
64791;SDS011;51226;47.504;19.074;2022-12-29T09:25:08;35.30;;;24.85;;
64791;SDS011;51226;47.504;19.074;2022-12-29T09:31:14;31.17;;;24.08;;
64791;SDS011;51226;47.504;19.074;2022-12-29T09:34:17;34.28;;;26.02;;
64791;SDS011;51226;47.504;19.074;2022-12-29T09:37:20;37.67;;;27.87;;
64791;SDS011;51226;47.504;19.074;2022-12-29T09:40:24;34.67;;;26.35;;
64791;SDS011;51226;47.504;19.074;2022-12-29T09:43:43;32.72;;;24.60;;
64791;SDS011;51226;47.504;19.074;2022-12-29T09:47:09;32.75;;;26.10;;
64791;SDS011;51226;47.504;19.074;2022-12-29T09:50:23;33.10;;;24.98;;
64791;SDS011;51226;47.504;19.074;2022-12-29T09:56:43;34.70;;;26.92;;
64791;SDS011;51226;47.504;19.074;2022-12-29T09:59:47;36.10;;;26.15;;
64791;SDS011;51226;47.504;19.074;2022-12-29T10:02:57;38.45;;;26.80;;
64791;SDS011;51226;47.504;19.074;2022-12-29T10:06:09;37.97;;;27.83;;
64791;SDS011;51226;47.504;19.074;2022-12-29T10:12:46;39.08;;;27.95;;
64791;SDS011;51226;47.504;19.074;2022-12-29T10:23:11;38.65;;;26.48;;
64791;SDS011;51226;47.504;19.074;2022-12-29T10:26:42;37.50;;;28.15;;
64791;SDS011;51226;47.504;19.074;2022-12-29T10:29:54;36.00;;;26.20;;
64791;SDS011;51226;47.504;19.074;2022-12-29T10:33:01;36.17;;;26.40;;
64791;SDS011;51226;47.504;19.074;2022-12-29T10:39:26;37.92;;;27.52;;
64791;SDS011;51226;47.504;19.074;2022-12-29T10:42:35;33.40;;;26.60;;
64791;SDS011;51226;47.504;19.074;2022-12-29T10:45:43;40.10;;;28.17;;
64791;SDS011;51226;47.504;19.074;2022-12-29T10:48:47;31.75;;;25.00;;
64791;SDS011;51226;47.504;19.074;2022-12-29T10:51:50;36.42;;;27.87;;
64791;SDS011;51226;47.504;19.074;2022-12-29T10:54:58;35.53;;;26.17;;
64791;SDS011;51226;47.504;19.074;2022-12-29T10:58:06;33.63;;;28.52;;
64791;SDS011;51226;47.504;19.074;2022-12-29T11:01:13;32.35;;;27.05;;
64791;SDS011;51226;47.504;19.074;2022-12-29T11:07:38;30.90;;;26.62;;
64791;SDS011;51226;47.504;19.074;2022-12-29T11:10:42;32.28;;;26.95;;
64791;SDS011;51226;47.504;19.074;2022-12-29T11:13:48;35.67;;;27.75;;
64791;SDS011;51226;47.504;19.074;2022-12-29T11:17:00;32.97;;;26.35;;
64791;SDS011;51226;47.504;19.074;2022-12-29T11:23:32;32.72;;;26.75;;
64791;SDS011;51226;47.504;19.074;2022-12-29T11:26:37;31.80;;;27.08;;
64791;SDS011;51226;47.504;19.074;2022-12-29T11:29:40;32.28;;;27.50;;
64791;SDS011;51226;47.504;19.074;2022-12-29T11:32:50;31.75;;;26.45;;
64791;SDS011;51226;47.504;19.074;2022-12-29T11:35:58;30.33;;;26.62;;
64791;SDS011;51226;47.504;19.074;2022-12-29T11:39:04;34.83;;;28.17;;
64791;SDS011;51226;47.504;19.074;2022-12-29T11:42:17;30.60;;;27.37;;
64791;SDS011;51226;47.504;19.074;2022-12-29T11:45:23;33.60;;;27.62;;
64791;SDS011;51226;47.504;19.074;2022-12-29T11:48:30;34.90;;;27.70;;
64791;SDS011;51226;47.504;19.074;2022-12-29T11:54:46;27.55;;;24.67;;
64791;SDS011;51226;47.504;19.074;2022-12-29T11:57:50;32.58;;;25.85;;
64791;SDS011;51226;47.504;19.074;2022-12-29T12:00:55;27.83;;;24.80;;
64791;SDS011;51226;47.504;19.074;2022-12-29T12:04:04;29.08;;;24.50;;
64791;SDS011;51226;47.504;19.074;2022-12-29T12:07:15;28.10;;;23.27;;
64791;SDS011;51226;47.504;19.074;2022-12-29T12:10:24;29.65;;;24.30;;
64791;SDS011;51226;47.504;19.074;2022-12-29T12:13:36;27.50;;;23.45;;
64791;SDS011;51226;47.504;19.074;2022-12-29T12:16:55;25.62;;;22.83;;
64791;SDS011;51226;47.504;19.074;2022-12-29T12:23:34;29.23;;;23.98;;
64791;SDS011;51226;47.504;19.074;2022-12-29T12:27:00;27.67;;;24.33;;
64791;SDS011;51226;47.504;19.074;2022-12-29T12:56:32;29.03;;;25.97;;
64791;SDS011;51226;47.504;19.074;2022-12-29T13:00:08;29.40;;;24.73;;
64791;SDS011;51226;47.504;19.074;2022-12-29T13:03:23;30.42;;;27.13;;
64791;SDS011;51226;47.504;19.074;2022-12-29T13:10:19;34.10;;;27.95;;
64791;SDS011;51226;47.504;19.074;2022-12-29T13:24:02;33.20;;;29.58;;
64791;SDS011;51226;47.504;19.074;2022-12-29T13:27:28;34.70;;;30.48;;
64791;SDS011;51226;47.504;19.074;2022-12-29T13:30:53;37.08;;;30.40;;
64791;SDS011;51226;47.504;19.074;2022-12-29T13:34:09;34.33;;;29.73;;
64791;SDS011;51226;47.504;19.074;2022-12-29T13:37:16;36.88;;;29.98;;
64791;SDS011;51226;47.504;19.074;2022-12-29T13:40:23;37.65;;;30.20;;
64791;SDS011;51226;47.504;19.074;2022-12-29T13:43:30;33.78;;;28.17;;
64791;SDS011;51226;47.504;19.074;2022-12-29T13:46:37;38.00;;;29.02;;
64791;SDS011;51226;47.504;19.074;2022-12-29T13:49:43;36.67;;;28.67;;
64791;SDS011;51226;47.504;19.074;2022-12-29T13:56:20;39.13;;;30.33;;
64791;SDS011;51226;47.504;19.074;2022-12-29T14:00:13;38.65;;;28.02;;
64791;SDS011;51226;47.504;19.074;2022-12-29T14:06:31;33.53;;;26.95;;
64791;SDS011;51226;47.504;19.074;2022-12-29T14:12:40;38.92;;;30.15;;
64791;SDS011;51226;47.504;19.074;2022-12-29T14:15:50;81.82;;;56.10;;
64791;SDS011;51226;47.504;19.074;2022-12-29T14:18:57;46.17;;;33.00;;
64791;SDS011;51226;47.504;19.074;2022-12-29T14:22:25;37.22;;;28.08;;
64791;SDS011;51226;47.504;19.074;2022-12-29T14:29:22;39.10;;;28.67;;
64791;SDS011;51226;47.504;19.074;2022-12-29T14:35:50;36.58;;;27.58;;
64791;SDS011;51226;47.504;19.074;2022-12-29T14:38:54;40.58;;;28.95;;
64791;SDS011;51226;47.504;19.074;2022-12-29T14:42:03;43.42;;;31.42;;
64791;SDS011;51226;47.504;19.074;2022-12-29T14:45:29;38.47;;;28.65;;
64791;SDS011;51226;47.504;19.074;2022-12-29T14:48:34;37.67;;;28.75;;
64791;SDS011;51226;47.504;19.074;2022-12-29T14:51:40;45.25;;;29.52;;
64791;SDS011;51226;47.504;19.074;2022-12-29T14:54:45;38.72;;;28.92;;
64791;SDS011;51226;47.504;19.074;2022-12-29T14:57:57;43.58;;;31.37;;
64791;SDS011;51226;47.504;19.074;2022-12-29T15:01:03;47.40;;;33.05;;
64791;SDS011;51226;47.504;19.074;2022-12-29T15:04:21;39.42;;;29.65;;
64791;SDS011;51226;47.504;19.074;2022-12-29T15:07:27;37.38;;;28.83;;
64791;SDS011;51226;47.504;19.074;2022-12-29T15:10:37;42.85;;;29.77;;
64791;SDS011;51226;47.504;19.074;2022-12-29T15:13:45;40.22;;;30.48;;
64791;SDS011;51226;47.504;19.074;2022-12-29T15:16:51;40.83;;;30.40;;
64791;SDS011;51226;47.504;19.074;2022-12-29T15:19:54;44.22;;;30.83;;
64791;SDS011;51226;47.504;19.074;2022-12-29T15:23:02;45.12;;;30.08;;
64791;SDS011;51226;47.504;19.074;2022-12-29T15:26:11;38.45;;;27.52;;
64791;SDS011;51226;47.504;19.074;2022-12-29T15:29:38;42.13;;;28.98;;
64791;SDS011;51226;47.504;19.074;2022-12-29T15:32:43;40.17;;;27.98;;
64791;SDS011;51226;47.504;19.074;2022-12-29T15:35:51;39.58;;;28.00;;
64791;SDS011;51226;47.504;19.074;2022-12-29T15:38:55;39.47;;;28.08;;
64791;SDS011;51226;47.504;19.074;2022-12-29T15:45:55;41.65;;;29.42;;
64791;SDS011;51226;47.504;19.074;2022-12-29T15:48:58;44.10;;;29.33;;
64791;SDS011;51226;47.504;19.074;2022-12-29T15:52:05;45.20;;;30.12;;
64791;SDS011;51226;47.504;19.074;2022-12-29T15:55:18;45.10;;;32.08;;
64791;SDS011;51226;47.504;19.074;2022-12-29T15:58:25;47.92;;;34.15;;
64791;SDS011;51226;47.504;19.074;2022-12-29T16:01:35;47.85;;;31.25;;
64791;SDS011;51226;47.504;19.074;2022-12-29T16:04:43;48.80;;;31.23;;
64791;SDS011;51226;47.504;19.074;2022-12-29T16:11:45;44.60;;;30.90;;
64791;SDS011;51226;47.504;19.074;2022-12-29T16:14:54;45.72;;;31.20;;
64791;SDS011;51226;47.504;19.074;2022-12-29T16:18:01;51.92;;;31.62;;
64791;SDS011;51226;47.504;19.074;2022-12-29T16:21:05;44.95;;;29.65;;
64791;SDS011;51226;47.504;19.074;2022-12-29T16:24:20;43.13;;;30.42;;
64791;SDS011;51226;47.504;19.074;2022-12-29T16:27:28;45.47;;;30.42;;
64791;SDS011;51226;47.504;19.074;2022-12-29T16:30:37;47.17;;;30.60;;
64791;SDS011;51226;47.504;19.074;2022-12-29T16:33:50;51.78;;;32.83;;
64791;SDS011;51226;47.504;19.074;2022-12-29T16:37:02;50.28;;;32.03;;
64791;SDS011;51226;47.504;19.074;2022-12-29T16:40:28;50.25;;;33.80;;
64791;SDS011;51226;47.504;19.074;2022-12-29T16:43:34;46.22;;;31.45;;
64791;SDS011;51226;47.504;19.074;2022-12-29T16:47:30;52.30;;;32.50;;
64791;SDS011;51226;47.504;19.074;2022-12-29T16:50:11;49.92;;;32.13;;
64791;SDS011;51226;47.504;19.074;2022-12-29T16:53:23;46.60;;;32.15;;
64791;SDS011;51226;47.504;19.074;2022-12-29T16:56:30;43.47;;;31.45;;
64791;SDS011;51226;47.504;19.074;2022-12-29T16:59:40;46.92;;;32.03;;
64791;SDS011;51226;47.504;19.074;2022-12-29T17:02:48;48.85;;;30.48;;
64791;SDS011;51226;47.504;19.074;2022-12-29T17:05:53;48.15;;;31.80;;
64791;SDS011;51226;47.504;19.074;2022-12-29T17:09:00;46.10;;;31.62;;
64791;SDS011;51226;47.504;19.074;2022-12-29T17:12:03;47.03;;;31.85;;
64791;SDS011;51226;47.504;19.074;2022-12-29T17:15:26;55.65;;;33.38;;
64791;SDS011;51226;47.504;19.074;2022-12-29T17:18:36;63.25;;;35.40;;
64791;SDS011;51226;47.504;19.074;2022-12-29T17:21:40;65.18;;;36.08;;
64791;SDS011;51226;47.504;19.074;2022-12-29T17:24:43;55.38;;;33.03;;
64791;SDS011;51226;47.504;19.074;2022-12-29T17:27:57;54.80;;;34.22;;
64791;SDS011;51226;47.504;19.074;2022-12-29T17:31:03;48.72;;;32.97;;
64791;SDS011;51226;47.504;19.074;2022-12-29T17:34:12;49.60;;;32.15;;
64791;SDS011;51226;47.504;19.074;2022-12-29T17:40:27;46.97;;;33.03;;
64791;SDS011;51226;47.504;19.074;2022-12-29T17:43:33;51.72;;;33.40;;
64791;SDS011;51226;47.504;19.074;2022-12-29T17:46:39;52.25;;;33.15;;
64791;SDS011;51226;47.504;19.074;2022-12-29T17:49:42;51.10;;;33.38;;
64791;SDS011;51226;47.504;19.074;2022-12-29T17:52:50;53.05;;;34.05;;
64791;SDS011;51226;47.504;19.074;2022-12-29T17:56:02;54.42;;;32.90;;
64791;SDS011;51226;47.504;19.074;2022-12-29T17:59:09;52.03;;;32.90;;
64791;SDS011;51226;47.504;19.074;2022-12-29T18:02:26;51.88;;;33.67;;
64791;SDS011;51226;47.504;19.074;2022-12-29T18:05:34;52.88;;;34.72;;
64791;SDS011;51226;47.504;19.074;2022-12-29T18:08:38;57.33;;;35.50;;
64791;SDS011;51226;47.504;19.074;2022-12-29T18:11:43;52.05;;;33.65;;
64791;SDS011;51226;47.504;19.074;2022-12-29T18:14:47;50.05;;;31.60;;
64791;SDS011;51226;47.504;19.074;2022-12-29T18:17:58;51.28;;;33.47;;
64791;SDS011;51226;47.504;19.074;2022-12-29T18:21:04;56.23;;;34.73;;
64791;SDS011;51226;47.504;19.074;2022-12-29T18:24:12;51.78;;;34.58;;
64791;SDS011;51226;47.504;19.074;2022-12-29T18:27:16;53.17;;;34.67;;
64791;SDS011;51226;47.504;19.074;2022-12-29T18:30:24;57.17;;;34.97;;
64791;SDS011;51226;47.504;19.074;2022-12-29T18:33:27;49.53;;;32.42;;
64791;SDS011;51226;47.504;19.074;2022-12-29T18:36:41;52.28;;;33.03;;
64791;SDS011;51226;47.504;19.074;2022-12-29T18:39:45;56.58;;;35.58;;
64791;SDS011;51226;47.504;19.074;2022-12-29T18:42:49;54.47;;;34.97;;
64791;SDS011;51226;47.504;19.074;2022-12-29T18:45:55;53.53;;;34.25;;
64791;SDS011;51226;47.504;19.074;2022-12-29T18:49:03;51.45;;;32.88;;
64791;SDS011;51226;47.504;19.074;2022-12-29T18:52:11;49.47;;;32.90;;
64791;SDS011;51226;47.504;19.074;2022-12-29T18:55:18;56.33;;;34.55;;
64791;SDS011;51226;47.504;19.074;2022-12-29T18:58:25;49.17;;;32.90;;
64791;SDS011;51226;47.504;19.074;2022-12-29T19:01:40;52.75;;;34.00;;
64791;SDS011;51226;47.504;19.074;2022-12-29T19:04:52;56.15;;;34.78;;
64791;SDS011;51226;47.504;19.074;2022-12-29T19:08:04;52.53;;;33.72;;
64791;SDS011;51226;47.504;19.074;2022-12-29T19:11:08;47.62;;;31.95;;
64791;SDS011;51226;47.504;19.074;2022-12-29T19:14:13;52.33;;;33.97;;
64791;SDS011;51226;47.504;19.074;2022-12-29T19:17:20;50.15;;;33.40;;
64791;SDS011;51226;47.504;19.074;2022-12-29T19:23:33;48.30;;;32.60;;
64791;SDS011;51226;47.504;19.074;2022-12-29T19:26:38;51.75;;;33.70;;
64791;SDS011;51226;47.504;19.074;2022-12-29T19:29:45;46.85;;;31.12;;
64791;SDS011;51226;47.504;19.074;2022-12-29T19:32:50;52.60;;;34.28;;
64791;SDS011;51226;47.504;19.074;2022-12-29T19:35:58;52.30;;;34.85;;
64791;SDS011;51226;47.504;19.074;2022-12-29T19:39:03;50.20;;;33.35;;
64791;SDS011;51226;47.504;19.074;2022-12-29T19:42:10;47.78;;;31.90;;
64791;SDS011;51226;47.504;19.074;2022-12-29T19:45:14;47.78;;;32.33;;
64791;SDS011;51226;47.504;19.074;2022-12-29T19:48:26;48.28;;;32.17;;
64791;SDS011;51226;47.504;19.074;2022-12-29T19:51:40;46.47;;;31.23;;
64791;SDS011;51226;47.504;19.074;2022-12-29T19:54:45;51.58;;;33.85;;
64791;SDS011;51226;47.504;19.074;2022-12-29T19:57:50;47.75;;;32.42;;
64791;SDS011;51226;47.504;19.074;2022-12-29T20:01:01;48.70;;;32.53;;
64791;SDS011;51226;47.504;19.074;2022-12-29T20:04:11;49.42;;;32.10;;
64791;SDS011;51226;47.504;19.074;2022-12-29T20:07:17;47.67;;;32.30;;
64791;SDS011;51226;47.504;19.074;2022-12-29T20:10:21;49.03;;;32.47;;
64791;SDS011;51226;47.504;19.074;2022-12-29T20:13:24;48.42;;;31.08;;
64791;SDS011;51226;47.504;19.074;2022-12-29T20:16:28;46.85;;;31.98;;
64791;SDS011;51226;47.504;19.074;2022-12-29T20:19:39;45.22;;;32.17;;
64791;SDS011;51226;47.504;19.074;2022-12-29T20:22:43;49.65;;;32.83;;
64791;SDS011;51226;47.504;19.074;2022-12-29T20:25:52;46.45;;;32.05;;
64791;SDS011;51226;47.504;19.074;2022-12-29T20:28:57;43.50;;;30.25;;
64791;SDS011;51226;47.504;19.074;2022-12-29T20:32:01;43.35;;;29.70;;
64791;SDS011;51226;47.504;19.074;2022-12-29T20:35:11;47.45;;;32.25;;
64791;SDS011;51226;47.504;19.074;2022-12-29T20:38:15;50.40;;;33.10;;
64791;SDS011;51226;47.504;19.074;2022-12-29T20:41:19;49.80;;;35.33;;
64791;SDS011;51226;47.504;19.074;2022-12-29T20:44:23;50.58;;;32.35;;
64791;SDS011;51226;47.504;19.074;2022-12-29T20:47:30;47.05;;;31.60;;